Time;durP1;ratioP1;P1;durP2;ratioP2;P2;SDS_P1;SDS_P2;PMS_P1;PMS_P2;Temp;Humidity;BMP_temperature;BMP_pressure;BME280_temperature;BME280_humidity;BME280_pressure;Samples;Min_cycle;Max_cycle;Signal;HPM_P1;HPM_P2
2022/04/12 00:01:08;;;;;;;18.15;16.30;;;8.20;99.90;;;;;;4975628;28;20091;-75
2022/04/12 00:03:34;;;;;;;18.60;15.75;;;8.20;99.90;;;;;;4971631;28;20504;-75
2022/04/12 00:05:59;;;;;;;18.17;16.27;;;8.10;99.90;;;;;;5010434;28;20041;-76
2022/04/12 00:08:26;;;;;;;18.73;16.67;;;8.10;99.90;;;;;;4991842;28;20051;-75
2022/04/12 00:10:52;;;;;;;19.08;16.10;;;8.10;99.90;;;;;;4975517;28;20045;-75
2022/04/12 00:13:18;;;;;;;18.27;16.10;;;8.20;99.90;;;;;;5011652;28;20326;-75
2022/04/12 00:15:45;;;;;;;18.20;16.27;;;8.10;99.90;;;;;;4989954;28;20318;-76
2022/04/12 00:20:58;;;;;;;18.52;16.73;;;8.10;99.90;;;;;;4993269;28;20064;-75
2022/04/12 00:23:24;;;;;;;17.88;16.05;;;8.10;99.90;;;;;;4989587;28;20282;-76
2022/04/12 00:25:50;;;;;;;22.90;18.05;;;8.10;99.90;;;;;;4990961;28;20216;-75
2022/04/12 00:28:16;;;;;;;19.33;17.20;;;8.00;99.90;;;;;;4989144;28;20049;-75
2022/04/12 00:30:43;;;;;;;19.75;17.75;;;8.00;99.90;;;;;;5010194;28;20110;-75
2022/04/12 00:33:09;;;;;;;19.75;17.75;;;7.90;99.90;;;;;;5014184;28;20041;-75
2022/04/12 00:35:35;;;;;;;19.38;17.42;;;7.90;99.90;;;;;;4988265;28;20079;-75
2022/04/12 00:38:04;;;;;;;19.38;17.38;;;7.90;99.90;;;;;;4992558;28;20052;-76
2022/04/12 00:40:39;;;;;;;19.15;17.25;;;7.90;99.90;;;;;;4991384;28;20401;-75
2022/04/12 00:43:05;;;;;;;19.10;17.08;;;7.80;99.90;;;;;;5007593;28;20041;-75
2022/04/12 00:45:31;;;;;;;18.33;16.25;;;7.90;99.90;;;;;;4990903;28;20041;-76
2022/04/12 00:47:56;;;;;;;19.20;17.15;;;7.80;99.90;;;;;;4987719;28;20053;-76
2022/04/12 00:50:22;;;;;;;19.42;17.52;;;7.90;99.90;;;;;;4989831;28;20064;-75
2022/04/12 00:52:51;;;;;;;21.23;17.33;;;7.80;99.90;;;;;;4992730;28;20041;-75
2022/04/12 00:55:18;;;;;;;18.40;16.42;;;7.80;99.90;;;;;;5011772;28;20046;-75
2022/04/12 00:57:44;;;;;;;19.55;17.17;;;7.80;99.90;;;;;;5005555;28;20048;-75
2022/04/12 01:00:12;;;;;;;21.05;16.92;;;7.80;99.90;;;;;;4996142;28;20049;-76
2022/04/12 01:02:39;;;;;;;18.40;16.50;;;7.80;99.90;;;;;;5011692;28;20049;-75
2022/04/12 01:05:06;;;;;;;18.88;16.90;;;7.80;99.90;;;;;;5010344;28;20513;-75
2022/04/12 01:07:36;;;;;;;18.80;16.85;;;7.70;99.90;;;;;;5014988;28;20068;-75
2022/04/12 01:10:05;;;;;;;19.63;17.63;;;7.70;99.90;;;;;;4999493;28;20041;-75
2022/04/12 01:12:38;;;;;;;19.80;17.70;;;7.60;99.90;;;;;;5010518;28;20141;-75
2022/04/12 01:15:14;;;;;;;18.17;16.35;;;7.60;99.90;;;;;;5009439;28;20053;-75
2022/04/12 01:17:45;;;;;;;18.38;16.42;;;7.50;99.90;;;;;;4987303;28;20077;-75
2022/04/12 01:20:13;;;;;;;19.88;17.60;;;7.60;99.90;;;;;;5008926;28;20492;-75
2022/04/12 01:23:12;;;;;;;19.45;17.45;;;7.60;99.90;;;;;;5011616;28;20499;-75
2022/04/12 01:25:39;;;;;;;18.95;17.08;;;7.50;99.90;;;;;;5008359;28;20122;-76
2022/04/12 01:28:09;;;;;;;18.08;16.27;;;7.60;99.90;;;;;;5010140;28;20527;-75
2022/04/12 01:30:36;;;;;;;18.58;16.70;;;7.50;99.90;;;;;;5018059;28;20054;-75
2022/04/12 01:33:03;;;;;;;18.20;15.82;;;7.50;99.90;;;;;;4996712;28;20045;-76
2022/04/12 01:35:29;;;;;;;17.17;15.52;;;7.50;99.90;;;;;;4974856;28;20792;-75
2022/04/12 01:37:55;;;;;;;17.88;16.13;;;7.50;99.90;;;;;;5008588;28;20050;-75
2022/04/12 01:40:20;;;;;;;19.52;15.88;;;7.50;99.90;;;;;;5012514;28;20037;-75
2022/04/12 01:42:47;;;;;;;18.50;16.48;;;7.50;99.90;;;;;;4984707;28;20040;-75
2022/04/12 01:45:13;;;;;;;18.55;16.08;;;7.50;99.90;;;;;;4995428;28;20049;-76
2022/04/12 01:47:39;;;;;;;19.10;16.60;;;7.50;99.90;;;;;;5004675;28;20103;-75
2022/04/12 01:50:06;;;;;;;19.30;16.25;;;7.60;99.90;;;;;;5023451;28;20037;-75
2022/04/12 01:52:33;;;;;;;16.88;15.13;;;7.40;99.90;;;;;;4997530;28;20052;-75
2022/04/12 01:54:59;;;;;;;17.30;15.50;;;7.40;99.90;;;;;;4996400;28;20101;-75
2022/04/12 01:57:25;;;;;;;18.08;16.02;;;7.40;99.90;;;;;;5013972;28;20567;-75
2022/04/12 01:59:51;;;;;;;18.63;15.55;;;7.40;99.90;;;;;;5027445;28;20076;-75
2022/04/12 02:02:16;;;;;;;17.85;16.02;;;7.40;99.90;;;;;;4992985;28;20095;-75
2022/04/12 02:04:42;;;;;;;17.90;15.65;;;7.40;99.90;;;;;;4977892;28;20052;-75
2022/04/12 02:07:08;;;;;;;17.80;15.93;;;7.40;99.90;;;;;;4994343;28;20116;-75
2022/04/12 02:09:34;;;;;;;17.92;16.02;;;7.40;99.90;;;;;;4985396;28;20097;-74
2022/04/12 02:11:59;;;;;;;16.55;14.68;;;7.40;99.90;;;;;;5009620;28;20045;-75
2022/04/12 02:14:25;;;;;;;17.35;14.57;;;7.50;99.90;;;;;;4990548;28;20443;-74
2022/04/12 02:16:51;;;;;;;16.90;15.15;;;7.50;99.90;;;;;;5008247;28;20045;-75
2022/04/12 02:19:17;;;;;;;18.60;14.68;;;7.50;99.90;;;;;;5007176;28;20045;-75
2022/04/12 02:21:43;;;;;;;16.58;14.95;;;7.40;99.90;;;;;;5008791;28;20045;-75
2022/04/12 02:24:08;;;;;;;17.27;14.98;;;7.40;99.90;;;;;;4975578;28;20651;-74
2022/04/12 02:26:34;;;;;;;15.82;14.05;;;7.40;99.90;;;;;;4980298;28;20051;-75
2022/04/12 02:29:00;;;;;;;16.33;14.57;;;7.40;99.90;;;;;;5008248;28;20416;-75
2022/04/12 02:31:26;;;;;;;16.42;14.80;;;7.40;99.90;;;;;;4975261;28;20085;-75
2022/04/12 02:33:51;;;;;;;16.65;14.30;;;7.40;99.90;;;;;;4991201;28;20041;-75
2022/04/12 02:36:17;;;;;;;18.25;15.38;;;7.40;99.90;;;;;;4988730;28;20041;-75
2022/04/12 02:38:43;;;;;;;15.88;14.10;;;7.40;99.90;;;;;;4991664;28;20082;-75
2022/04/12 02:41:09;;;;;;;15.73;14.07;;;7.30;99.90;;;;;;5007255;28;20086;-75
2022/04/12 02:43:35;;;;;;;16.95;14.95;;;7.40;99.90;;;;;;4993920;28;20063;-75
2022/04/12 02:46:01;;;;;;;16.35;14.65;;;7.30;99.90;;;;;;4992608;28;20058;-75
2022/04/12 02:48:28;;;;;;;16.80;14.98;;;7.20;99.90;;;;;;4985735;28;20080;-75
2022/04/12 02:50:54;;;;;;;16.17;14.40;;;7.20;99.90;;;;;;5010992;28;20412;-75
2022/04/12 02:53:20;;;;;;;16.20;14.50;;;7.20;99.90;;;;;;4979420;28;20045;-74
2022/04/12 02:55:45;;;;;;;16.30;14.55;;;7.10;99.90;;;;;;4975208;28;20037;-75
2022/04/12 02:58:11;;;;;;;17.05;14.32;;;7.00;99.90;;;;;;4993374;28;20805;-74
2022/04/12 03:00:37;;;;;;;17.55;15.65;;;6.90;99.90;;;;;;5018535;28;20436;-75
2022/04/12 03:03:06;;;;;;;18.05;16.10;;;6.90;99.90;;;;;;5006962;28;20559;-75
2022/04/12 03:05:31;;;;;;;16.95;14.95;;;6.90;99.90;;;;;;5007576;28;20201;-75
2022/04/12 03:07:57;;;;;;;15.95;14.35;;;6.80;99.90;;;;;;5005542;28;20140;-75
2022/04/12 03:10:23;;;;;;;16.25;14.52;;;6.80;99.90;;;;;;5009675;28;20203;-75
2022/04/12 03:12:50;;;;;;;18.23;16.42;;;6.70;99.90;;;;;;5005608;28;20085;-75
2022/04/12 03:15:16;;;;;;;19.20;15.63;;;6.80;99.90;;;;;;5004554;28;20044;-74
2022/04/12 03:17:42;;;;;;;16.95;15.20;;;6.80;99.90;;;;;;5011371;28;20097;-74
2022/04/12 03:20:08;;;;;;;18.40;16.42;;;6.80;99.90;;;;;;4988611;28;20041;-74
2022/04/12 03:22:34;;;;;;;17.67;15.90;;;6.70;99.90;;;;;;4995457;28;20503;-74
2022/04/12 03:25:01;;;;;;;19.50;16.50;;;6.70;99.90;;;;;;5006939;28;20075;-74
2022/04/12 03:27:27;;;;;;;18.23;16.40;;;6.70;99.90;;;;;;5005666;28;20169;-75
2022/04/12 03:29:53;;;;;;;18.05;16.23;;;6.70;99.90;;;;;;4977707;28;20038;-74
2022/04/12 03:32:19;;;;;;;18.55;15.23;;;6.70;99.90;;;;;;5014222;28;20048;-75
2022/04/12 03:34:46;;;;;;;17.60;15.75;;;6.70;99.90;;;;;;5007957;28;20072;-75
2022/04/12 03:37:13;;;;;;;17.63;15.90;;;6.70;99.90;;;;;;4993389;28;20045;-74
2022/04/12 03:39:38;;;;;;;18.30;16.42;;;6.70;99.90;;;;;;4993012;28;20057;-75
2022/04/12 03:42:11;;;;;;;16.85;15.07;;;6.70;99.90;;;;;;4989524;28;20034;-75
2022/04/12 03:44:40;;;;;;;17.48;15.43;;;6.70;99.90;;;;;;4994389;28;20060;-75
2022/04/12 03:47:07;;;;;;;17.20;15.50;;;6.70;99.90;;;;;;5025236;28;20463;-76
2022/04/12 03:49:35;;;;;;;16.73;15.13;;;6.70;99.90;;;;;;5009211;28;20053;-76
2022/04/12 03:52:01;;;;;;;17.98;15.20;;;6.80;99.90;;;;;;5004927;28;20507;-76
2022/04/12 03:54:27;;;;;;;17.17;15.38;;;6.80;99.90;;;;;;4992724;28;20081;-75
2022/04/12 03:56:53;;;;;;;16.27;14.50;;;6.70;99.90;;;;;;5010058;28;20053;-76
2022/04/12 03:59:19;;;;;;;16.80;15.10;;;6.80;99.90;;;;;;4990051;28;20048;-76
2022/04/12 04:01:46;;;;;;;16.85;15.05;;;6.70;99.90;;;;;;5015882;28;20045;-76
2022/04/12 04:04:12;;;;;;;17.20;15.35;;;6.70;99.90;;;;;;5011684;28;20055;-76
2022/04/12 04:06:38;;;;;;;17.52;15.68;;;6.80;99.90;;;;;;5000087;28;20876;-75
2022/04/12 04:09:04;;;;;;;15.90;14.27;;;6.80;99.90;;;;;;4991990;28;20095;-75
2022/04/12 04:11:30;;;;;;;16.45;14.75;;;6.80;99.90;;;;;;5007262;28;20056;-75
2022/04/12 04:13:56;;;;;;;16.05;14.45;;;6.80;99.90;;;;;;4990790;28;20656;-75
2022/04/12 04:16:22;;;;;;;16.08;14.38;;;6.80;99.90;;;;;;4992132;28;20037;-76
2022/04/12 04:18:48;;;;;;;16.52;14.73;;;6.80;99.90;;;;;;4988747;28;20156;-74
2022/04/12 04:21:14;;;;;;;17.40;15.43;;;6.80;99.90;;;;;;4991118;28;20053;-75
2022/04/12 04:23:40;;;;;;;16.70;14.93;;;6.80;99.90;;;;;;5007819;28;20063;-75
2022/04/12 04:26:05;;;;;;;16.25;14.63;;;6.80;99.90;;;;;;5007180;28;20560;-74
2022/04/12 04:28:33;;;;;;;16.17;14.20;;;6.80;99.90;;;;;;4990216;28;20046;-75
2022/04/12 04:30:59;;;;;;;16.02;13.82;;;6.80;99.90;;;;;;4993683;28;20053;-76
2022/04/12 04:33:25;;;;;;;16.77;15.02;;;6.80;99.90;;;;;;4995246;28;20049;-75
2022/04/12 04:35:51;;;;;;;15.55;13.85;;;6.80;99.90;;;;;;4995330;28;20037;-74
2022/04/12 04:38:17;;;;;;;15.55;13.85;;;6.90;99.90;;;;;;4995492;28;20049;-74
2022/04/12 04:40:44;;;;;;;15.80;14.15;;;6.80;99.90;;;;;;4991735;28;20145;-75
2022/04/12 04:43:10;;;;;;;16.10;14.00;;;6.80;99.90;;;;;;4976121;28;20057;-74
2022/04/12 04:45:37;;;;;;;16.27;14.40;;;6.80;99.90;;;;;;4995767;28;20053;-75
2022/04/12 04:48:04;;;;;;;17.65;14.65;;;6.80;99.90;;;;;;4995780;28;20073;-75
2022/04/12 04:50:31;;;;;;;15.60;13.95;;;6.80;99.90;;;;;;5021352;28;20053;-75
2022/04/12 04:53:05;;;;;;;17.00;14.55;;;6.70;99.90;;;;;;5014944;28;20041;-75
2022/04/12 04:55:35;;;;;;;15.65;14.05;;;6.70;99.90;;;;;;5031190;28;20200;-75
2022/04/12 04:58:01;;;;;;;15.77;14.25;;;6.70;99.90;;;;;;5014133;28;20049;-75
2022/04/12 05:00:32;;;;;;;16.85;14.88;;;6.70;99.90;;;;;;5026105;28;20524;-75
2022/04/12 05:02:59;;;;;;;16.88;15.02;;;6.70;99.90;;;;;;4991457;28;20096;-75
2022/04/12 05:05:25;;;;;;;16.52;14.63;;;6.70;99.90;;;;;;4993348;28;20053;-75
2022/04/12 05:07:53;;;;;;;16.20;14.48;;;6.70;99.90;;;;;;4999837;28;20060;-75
2022/04/12 05:10:30;;;;;;;18.27;15.18;;;6.70;99.90;;;;;;5013505;28;20132;-75
2022/04/12 05:12:58;;;;;;;16.95;15.25;;;6.70;99.90;;;;;;4991570;28;20041;-76
2022/04/12 05:15:24;;;;;;;16.35;14.48;;;6.70;99.90;;;;;;5010639;28;20064;-75
2022/04/12 05:17:54;;;;;;;16.92;15.02;;;6.70;99.90;;;;;;5014725;28;20037;-76
2022/04/12 05:20:22;;;;;;;15.38;13.85;;;6.70;99.90;;;;;;5010364;28;20101;-75
2022/04/12 05:22:48;;;;;;;16.65;14.88;;;6.80;99.90;;;;;;4995535;28;20056;-76
2022/04/12 05:25:14;;;;;;;16.33;14.68;;;6.80;99.90;;;;;;5012776;28;20080;-75
2022/04/12 05:27:41;;;;;;;16.10;14.40;;;6.80;99.90;;;;;;5029119;28;20044;-75
2022/04/12 05:30:08;;;;;;;16.63;14.50;;;6.80;99.90;;;;;;5017778;28;20399;-76
2022/04/12 05:32:35;;;;;;;16.10;13.55;;;6.90;99.90;;;;;;4992866;28;20107;-75
2022/04/12 05:35:01;;;;;;;17.25;14.30;;;7.00;99.90;;;;;;4988739;28;20096;-75
2022/04/12 05:37:28;;;;;;;16.02;14.15;;;7.10;99.90;;;;;;5008154;28;20798;-75
2022/04/12 05:39:56;;;;;;;15.13;13.27;;;7.20;99.90;;;;;;4997820;28;20151;-74
2022/04/12 05:42:25;;;;;;;14.93;13.32;;;7.30;99.90;;;;;;5014025;28;20462;-75
2022/04/12 05:44:51;;;;;;;16.67;13.63;;;7.40;99.90;;;;;;5005143;28;20034;-76
2022/04/12 05:47:20;;;;;;;15.00;13.25;;;7.50;99.90;;;;;;4993979;28;20054;-73
2022/04/12 05:49:46;;;;;;;14.93;13.32;;;7.60;99.90;;;;;;4994795;28;20076;-74
2022/04/12 05:52:11;;;;;;;15.75;14.07;;;7.70;99.90;;;;;;4992825;28;20037;-74
2022/04/12 05:54:37;;;;;;;15.43;12.88;;;7.70;99.90;;;;;;5008846;28;20582;-74
2022/04/12 05:57:03;;;;;;;15.88;13.70;;;7.70;99.90;;;;;;5008273;28;20577;-74
2022/04/12 05:59:29;;;;;;;14.10;11.98;;;7.70;99.90;;;;;;5013532;28;20524;-74
2022/04/12 06:01:55;;;;;;;15.95;12.88;;;7.70;99.90;;;;;;4972739;28;20042;-74
2022/04/12 06:04:20;;;;;;;15.18;12.73;;;7.80;99.90;;;;;;5006891;28;20246;-75
2022/04/12 06:06:46;;;;;;;15.00;13.40;;;7.90;99.90;;;;;;5007024;28;20142;-74
2022/04/12 06:09:12;;;;;;;14.90;12.95;;;7.90;99.90;;;;;;4973350;28;20080;-74
2022/04/12 06:11:39;;;;;;;14.77;12.35;;;7.90;99.90;;;;;;4959927;28;20049;-76
2022/04/12 06:14:04;;;;;;;14.40;12.07;;;8.00;99.90;;;;;;4974269;28;20033;-75
2022/04/12 06:16:30;;;;;;;14.32;12.38;;;8.10;99.90;;;;;;5008222;28;20519;-76
2022/04/12 06:18:56;;;;;;;14.80;13.02;;;8.10;99.90;;;;;;4992025;28;20038;-75
2022/04/12 06:21:22;;;;;;;16.60;13.20;;;8.20;99.90;;;;;;5010269;28;20449;-75
2022/04/12 06:23:48;;;;;;;14.90;12.48;;;8.20;99.90;;;;;;4993127;28;20092;-75
2022/04/12 06:26:14;;;;;;;15.98;13.07;;;8.30;99.90;;;;;;5010279;28;20088;-75
2022/04/12 06:28:40;;;;;;;15.07;13.18;;;8.30;99.90;;;;;;4993132;28;20083;-75
2022/04/12 06:31:05;;;;;;;14.40;12.65;;;8.40;99.90;;;;;;4993560;28;20044;-75
2022/04/12 06:33:31;;;;;;;13.75;12.35;;;8.40;99.90;;;;;;5012474;28;20522;-75
2022/04/12 06:35:57;;;;;;;15.57;13.32;;;8.50;99.90;;;;;;4984826;28;20493;-75
2022/04/12 06:38:23;;;;;;;15.13;13.15;;;8.40;99.90;;;;;;4990847;28;20559;-73
2022/04/12 06:40:49;;;;;;;16.33;13.48;;;8.50;99.90;;;;;;5007891;28;20041;-75
2022/04/12 06:43:16;;;;;;;14.95;12.32;;;8.50;99.90;;;;;;5007675;28;20620;-76
2022/04/12 06:45:42;;;;;;;15.20;13.00;;;8.50;99.90;;;;;;5007761;28;20041;-76
2022/04/12 06:48:08;;;;;;;17.17;14.15;;;8.50;99.90;;;;;;5002759;28;20052;-76
2022/04/12 06:50:34;;;;;;;14.70;11.95;;;8.50;99.90;;;;;;5021567;28;20750;-74
2022/04/12 06:53:03;;;;;;;14.38;12.38;;;8.60;99.90;;;;;;4995440;28;20041;-75
2022/04/12 06:55:29;;;;;;;14.32;12.43;;;8.60;99.90;;;;;;5025687;28;20506;-75
2022/04/12 06:57:55;;;;;;;18.88;13.10;;;8.60;99.90;;;;;;4990094;28;20123;-76
2022/04/12 07:00:21;;;;;;;14.30;12.77;;;8.60;99.90;;;;;;4976755;28;20393;-75
2022/04/12 07:02:47;;;;;;;14.05;12.15;;;8.60;99.90;;;;;;4974266;28;20052;-75
2022/04/12 07:05:13;;;;;;;16.30;13.00;;;8.60;99.90;;;;;;4992569;28;20041;-75
2022/04/12 07:07:40;;;;;;;13.48;12.07;;;8.70;99.90;;;;;;4989577;28;20054;-75
2022/04/12 07:10:14;;;;;;;15.20;12.18;;;8.70;99.90;;;;;;4975060;28;20045;-76
2022/04/12 07:12:41;;;;;;;14.50;12.82;;;8.70;99.90;;;;;;5006541;28;20049;-75
2022/04/12 07:15:08;;;;;;;14.93;12.98;;;8.80;99.90;;;;;;4989372;28;20045;-75
2022/04/12 07:17:34;;;;;;;14.55;11.32;;;8.90;99.90;;;;;;4972914;28;20636;-75
2022/04/12 07:20:00;;;;;;;17.33;13.10;;;9.10;99.90;;;;;;4970776;28;20056;-75
2022/04/12 07:22:26;;;;;;;15.23;12.70;;;9.20;99.90;;;;;;5004650;28;20184;-74
2022/04/12 07:24:52;;;;;;;14.73;12.20;;;9.30;99.90;;;;;;5003665;28;20460;-75
2022/04/12 07:27:18;;;;;;;16.00;12.68;;;9.40;99.90;;;;;;4978962;28;20152;-75
2022/04/12 07:29:43;;;;;;;14.32;12.07;;;9.60;99.90;;;;;;5009580;28;20135;-74
2022/04/12 07:32:09;;;;;;;14.25;11.85;;;9.80;99.90;;;;;;4979195;28;20506;-75
2022/04/12 07:34:35;;;;;;;15.43;12.63;;;10.00;99.90;;;;;;5001664;28;20077;-75
2022/04/12 07:37:01;;;;;;;15.95;12.45;;;10.10;99.90;;;;;;5010157;28;20112;-75
2022/04/12 07:39:27;;;;;;;12.35;11.05;;;10.30;99.90;;;;;;5015936;28;20543;-76
2022/04/12 07:41:53;;;;;;;15.30;11.05;;;10.40;99.90;;;;;;4972403;28;20053;-77
2022/04/12 07:44:21;;;;;;;14.20;10.98;;;10.50;99.90;;;;;;4990241;28;20053;-76
2022/04/12 07:46:47;;;;;;;13.32;10.98;;;10.60;99.90;;;;;;4990551;28;20124;-74
2022/04/12 07:49:13;;;;;;;13.75;11.45;;;10.80;99.90;;;;;;5003811;28;20038;-75
2022/04/12 07:51:39;;;;;;;15.30;12.05;;;10.90;99.90;;;;;;4986225;28;20056;-75
2022/04/12 07:54:06;;;;;;;12.90;11.10;;;11.00;99.90;;;;;;4996318;28;20041;-75
2022/04/12 07:56:33;;;;;;;13.85;10.77;;;11.10;99.90;;;;;;5009884;28;20045;-74
2022/04/12 07:59:00;;;;;;;14.48;11.18;;;11.30;99.90;;;;;;5008968;28;20175;-75
2022/04/12 08:01:26;;;;;;;15.52;11.45;;;11.40;99.90;;;;;;5007959;28;20053;-74
2022/04/12 08:03:52;;;;;;;15.38;11.27;;;11.60;99.50;;;;;;4977187;28;20040;-75
2022/04/12 08:06:18;;;;;;;13.30;10.73;;;11.70;99.20;;;;;;4987836;28;20519;-75
2022/04/12 08:08:44;;;;;;;13.32;11.15;;;11.90;99.30;;;;;;4985486;28;20054;-75
2022/04/12 08:11:10;;;;;;;11.05;9.60;;;12.00;99.00;;;;;;4999017;28;20053;-75
2022/04/12 08:13:37;;;;;;;14.18;9.75;;;12.20;96.00;;;;;;4990346;28;20385;-76
2022/04/12 08:16:03;;;;;;;13.13;10.15;;;12.20;95.10;;;;;;4971601;28;20048;-74
2022/04/12 08:18:29;;;;;;;13.35;9.98;;;12.20;95.60;;;;;;5000939;28;20543;-76
2022/04/12 08:20:58;;;;;;;12.40;10.38;;;12.30;95.40;;;;;;4985376;28;20325;-75
2022/04/12 08:23:25;;;;;;;12.48;9.52;;;12.30;94.90;;;;;;4989070;28;20196;-76
2022/04/12 08:25:52;;;;;;;13.55;9.93;;;12.40;93.90;;;;;;4975173;28;20115;-75
2022/04/12 08:28:18;;;;;;;13.63;9.57;;;12.40;94.70;;;;;;4989265;28;20237;-75
2022/04/12 08:30:45;;;;;;;15.32;10.02;;;12.40;94.70;;;;;;5002860;28;20565;-75
2022/04/12 08:33:11;;;;;;;10.93;9.73;;;12.50;95.00;;;;;;5000345;28;20041;-76
2022/04/12 08:35:37;;;;;;;13.13;10.05;;;12.60;93.80;;;;;;4995375;28;20048;-74
2022/04/12 08:38:03;;;;;;;12.10;9.48;;;12.70;93.10;;;;;;5020928;28;20052;-75
2022/04/12 08:40:29;;;;;;;12.45;9.98;;;12.80;92.70;;;;;;5022897;28;20056;-74
2022/04/12 08:42:58;;;;;;;12.45;10.15;;;12.90;92.80;;;;;;5024303;28;20052;-75
2022/04/12 08:45:25;;;;;;;14.07;10.20;;;13.00;92.50;;;;;;5013416;28;20400;-74
2022/04/12 08:47:52;;;;;;;11.45;9.27;;;13.10;93.00;;;;;;5005909;28;20049;-75
2022/04/12 08:50:20;;;;;;;12.88;10.38;;;13.30;92.60;;;;;;4988697;28;20046;-76
2022/04/12 08:52:46;;;;;;;12.73;9.60;;;13.50;94.10;;;;;;5008737;28;20042;-75
2022/04/12 08:55:13;;;;;;;11.50;9.50;;;13.60;91.80;;;;;;5006212;28;20045;-76
2022/04/12 08:57:38;;;;;;;12.00;9.60;;;13.70;90.80;;;;;;4974055;28;20053;-73
2022/04/12 09:00:06;;;;;;;12.35;9.57;;;13.90;91.00;;;;;;4988006;28;20440;-75
2022/04/12 09:02:33;;;;;;;13.27;9.90;;;13.90;88.60;;;;;;4987702;28;20051;-76
2022/04/12 09:04:59;;;;;;;11.38;9.65;;;14.00;91.30;;;;;;4973662;28;20053;-74
2022/04/12 09:07:26;;;;;;;12.02;10.02;;;14.10;91.40;;;;;;4996488;28;20045;-75
2022/04/12 09:09:52;;;;;;;14.13;10.00;;;14.20;87.80;;;;;;4999779;28;20045;-76
2022/04/12 09:12:18;;;;;;;14.63;9.95;;;14.30;90.70;;;;;;5007330;28;20560;-75
2022/04/12 09:14:57;;;;;;;13.45;10.30;;;14.40;90.00;;;;;;4997335;28;20084;-76
2022/04/12 09:17:34;;;;;;;13.23;10.25;;;14.40;85.50;;;;;;5001854;28;20061;-76
2022/04/12 09:20:01;;;;;;;12.00;9.80;;;14.50;89.20;;;;;;4991698;28;20522;-76
2022/04/12 09:22:28;;;;;;;12.90;9.30;;;14.60;89.00;;;;;;4976143;28;20045;-78
2022/04/12 09:25:15;;;;;;;11.65;9.35;;;14.60;88.10;;;;;;4983614;28;20037;-76
2022/04/12 09:27:44;;;;;;;11.38;9.63;;;14.70;88.10;;;;;;5006401;28;20049;-76
2022/04/12 09:30:11;;;;;;;11.15;9.15;;;14.80;86.10;;;;;;5006754;28;20381;-76
2022/04/12 09:32:40;;;;;;;12.90;10.10;;;14.70;86.90;;;;;;5004033;28;20138;-77
2022/04/12 09:35:07;;;;;;;12.47;9.57;;;14.80;89.10;;;;;;4990260;28;20060;-76
2022/04/12 09:37:35;;;;;;;13.52;9.77;;;14.90;84.10;;;;;;5009237;28;20266;-75
2022/04/12 09:40:30;;;;;;;12.63;9.30;;;14.90;88.50;;;;;;5005675;28;20492;-74
2022/04/12 09:43:02;;;;;;;12.07;10.02;;;14.90;86.00;;;;;;4979372;28;20077;-76
2022/04/12 09:45:30;;;;;;;13.32;9.70;;;15.00;85.20;;;;;;5011788;28;20048;-76
2022/04/12 09:47:59;;;;;;;11.70;9.70;;;15.10;85.20;;;;;;5011733;28;20461;-76
2022/04/12 09:50:26;;;;;;;13.10;9.68;;;15.20;84.50;;;;;;5011782;28;20053;-75
2022/04/12 09:53:04;;;;;;;11.75;9.43;;;15.30;87.30;;;;;;4992430;28;20499;-76
2022/04/12 09:55:42;;;;;;;11.82;9.10;;;15.40;85.40;;;;;;5002331;28;20121;-74
2022/04/12 09:58:14;;;;;;;12.23;9.40;;;15.50;84.60;;;;;;5001303;28;20076;-73
2022/04/12 10:00:41;;;;;;;11.48;9.25;;;15.60;83.50;;;;;;5006043;28;20132;-76
2022/04/12 10:03:10;;;;;;;12.73;8.95;;;15.70;83.50;;;;;;5014806;28;20615;-75
2022/04/12 10:05:36;;;;;;;10.85;9.27;;;15.70;81.50;;;;;;5003015;28;20041;-76
2022/04/12 10:08:10;;;;;;;13.93;9.98;;;15.80;81.60;;;;;;4992691;28;20758;-76
2022/04/12 10:10:36;;;;;;;12.88;8.80;;;15.90;84.70;;;;;;4984396;28;20179;-76
2022/04/12 10:13:04;;;;;;;10.25;8.68;;;16.00;85.50;;;;;;4969134;28;20052;-76
2022/04/12 10:15:33;;;;;;;10.95;8.60;;;16.10;84.80;;;;;;5000583;28;20042;-77
2022/04/12 10:17:59;;;;;;;10.82;8.55;;;16.20;81.70;;;;;;4965615;28;20080;-76
2022/04/12 10:20:25;;;;;;;11.25;8.98;;;16.20;80.50;;;;;;5007565;28;20100;-76
2022/04/12 10:22:51;;;;;;;11.15;9.45;;;16.30;82.20;;;;;;4991622;28;20103;-76
2022/04/12 10:25:20;;;;;;;11.88;8.80;;;16.40;79.10;;;;;;4991224;28;20081;-77
2022/04/12 10:27:48;;;;;;;11.63;9.23;;;16.40;80.80;;;;;;5008199;28;20120;-76
2022/04/12 10:30:26;;;;;;;10.77;9.43;;;16.60;83.40;;;;;;5003379;28;20038;-75
2022/04/12 10:32:58;;;;;;;10.93;8.75;;;16.80;83.00;;;;;;5006082;28;20073;-75
2022/04/12 10:35:24;;;;;;;12.60;9.27;;;17.00;80.40;;;;;;5002620;28;20570;-77
2022/04/12 10:37:56;;;;;;;10.55;8.23;;;17.00;79.50;;;;;;4975850;28;20053;-77
2022/04/12 10:40:24;;;;;;;11.25;8.30;;;17.20;79.00;;;;;;5004516;28;20531;-77
2022/04/12 10:42:50;;;;;;;11.82;9.55;;;17.10;76.30;;;;;;4990680;28;20561;-77
2022/04/12 10:45:15;;;;;;;11.10;9.02;;;17.00;74.50;;;;;;5004457;28;20266;-77
2022/04/12 10:47:43;;;;;;;11.13;8.93;;;17.00;77.70;;;;;;4972436;28;20448;-76
2022/04/12 10:50:10;;;;;;;12.45;9.27;;;17.10;77.60;;;;;;4990363;28;20053;-76
2022/04/12 10:52:38;;;;;;;12.57;8.52;;;17.20;76.50;;;;;;5007156;28;20049;-77
2022/04/12 10:55:06;;;;;;;11.00;9.07;;;17.40;77.50;;;;;;5002650;28;20413;-77
2022/04/12 10:57:33;;;;;;;10.65;8.65;;;17.60;74.90;;;;;;4986557;28;20570;-76
2022/04/12 11:00:18;;;;;;;10.18;8.63;;;17.70;74.10;;;;;;5002311;28;20092;-75
2022/04/12 11:02:45;;;;;;;12.10;8.73;;;17.70;72.70;;;;;;4988544;28;20127;-76
2022/04/12 11:05:33;;;;;;;11.23;8.55;;;17.80;72.80;;;;;;5006681;28;20653;-76
2022/04/12 11:08:00;;;;;;;12.60;9.23;;;17.90;72.60;;;;;;4997964;28;20042;-75
2022/04/12 11:10:28;;;;;;;11.50;9.05;;;18.00;71.30;;;;;;4984338;28;20435;-77
2022/04/12 11:13:06;;;;;;;12.10;9.40;;;18.10;73.20;;;;;;5006266;28;20037;-76
2022/04/12 11:15:33;;;;;;;11.75;8.85;;;18.10;71.50;;;;;;5006563;28;20085;-77
2022/04/12 11:18:12;;;;;;;11.75;9.00;;;18.20;71.90;;;;;;4972953;28;20046;-77
2022/04/12 11:20:43;;;;;;;10.90;8.57;;;18.20;71.80;;;;;;5004562;28;20076;-77
2022/04/12 11:23:12;;;;;;;12.70;8.95;;;18.50;72.50;;;;;;4990123;28;20053;-75
2022/04/12 11:25:51;;;;;;;11.95;8.02;;;18.60;68.60;;;;;;5005280;28;20395;-77
2022/04/12 11:28:22;;;;;;;12.82;8.07;;;18.50;66.00;;;;;;4986268;28;20558;-77
2022/04/12 11:30:54;;;;;;;11.93;8.93;;;18.40;68.90;;;;;;4992835;28;20416;-77
2022/04/12 11:33:26;;;;;;;10.95;8.30;;;18.30;69.00;;;;;;4987901;28;20528;-78
2022/04/12 11:35:52;;;;;;;10.50;7.50;;;18.30;70.80;;;;;;4983773;28;20550;-78
2022/04/12 11:38:23;;;;;;;15.07;8.93;;;18.40;69.10;;;;;;5006017;28;20614;-76
2022/04/12 11:40:50;;;;;;;12.02;8.93;;;18.40;68.80;;;;;;4989043;28;20069;-77
2022/04/12 11:43:26;;;;;;;11.15;8.60;;;18.30;68.30;;;;;;4974315;28;20581;-77
2022/04/12 11:45:54;;;;;;;13.40;8.93;;;18.30;69.10;;;;;;4989987;28;20535;-74
2022/04/12 11:48:21;;;;;;;12.35;8.25;;;18.30;67.40;;;;;;4989250;28;20052;-78
2022/04/12 11:50:51;;;;;;;12.93;9.52;;;18.30;66.70;;;;;;5004223;28;20132;-77
2022/04/12 11:53:17;;;;;;;11.02;9.40;;;18.30;67.40;;;;;;4980836;28;20072;-77
2022/04/12 11:55:46;;;;;;;12.85;9.98;;;18.30;68.60;;;;;;4987862;28;20589;-75
2022/04/12 11:58:11;;;;;;;11.82;9.73;;;18.40;68.60;;;;;;4988099;28;20289;-77
2022/04/12 12:00:37;;;;;;;11.73;9.25;;;18.20;67.90;;;;;;4972114;28;20277;-77
2022/04/12 12:03:03;;;;;;;13.88;10.40;;;18.20;68.50;;;;;;4988184;28;20419;-77
2022/04/12 12:05:31;;;;;;;12.68;9.90;;;18.10;69.10;;;;;;5004594;28;20135;-77
2022/04/12 12:08:00;;;;;;;12.60;9.65;;;18.00;68.50;;;;;;4989509;28;20456;-76
2022/04/12 12:10:29;;;;;;;13.30;9.50;;;18.10;69.10;;;;;;5005519;28;20162;-76
2022/04/12 12:12:55;;;;;;;13.63;9.60;;;18.20;70.40;;;;;;5005629;28;20446;-77
2022/04/12 12:15:28;;;;;;;11.60;9.38;;;18.40;70.40;;;;;;4985559;28;20038;-77
2022/04/12 12:17:56;;;;;;;13.18;10.93;;;18.60;70.10;;;;;;4987506;28;20053;-76
2022/04/12 12:20:24;;;;;;;14.55;10.38;;;18.80;69.30;;;;;;5010778;28;20037;-74
2022/04/12 12:22:53;;;;;;;14.48;10.60;;;18.80;69.80;;;;;;5013673;28;20520;-75
2022/04/12 12:25:18;;;;;;;12.90;10.70;;;18.70;67.30;;;;;;5006828;28;20627;-75
2022/04/12 12:27:50;;;;;;;16.75;10.00;;;18.70;67.00;;;;;;4974875;28;20173;-76
2022/04/12 12:30:26;;;;;;;12.93;10.25;;;18.70;67.60;;;;;;5007469;28;20521;-76
2022/04/12 12:32:56;;;;;;;16.98;10.48;;;18.70;66.50;;;;;;4959838;28;20041;-75
2022/04/12 12:35:26;;;;;;;14.38;10.93;;;18.70;67.80;;;;;;5007011;28;20037;-77
2022/04/12 12:37:57;;;;;;;;;;;18.70;67.90;;;;;;5008326;28;20103;-75
2022/04/12 12:40:25;;;;;;;15.45;11.23;;;18.80;69.00;;;;;;4991582;28;19929;-75